Time;durP1;ratioP1;P1;durP2;ratioP2;P2;SDS_P1;SDS_P2;PMS_P1;PMS_P2;Temp;Humidity;BMP_temperature;BMP_pressure;BME280_temperature;BME280_humidity;BME280_pressure;Samples;Min_cycle;Max_cycle;Signal;HPM_P1;HPM_P2
2021/08/22 00:00:29;;;;;;;;;;;;;;;;;;5133314;27;19930;-67
2021/08/22 00:02:56;;;;;;;;;;;;;;;;;;5133507;27;19931;-67
2021/08/22 00:05:22;;;;;;;;;;;;;;;;;;5133709;28;19923;-66
2021/08/22 00:07:48;;;;;;;;;;;;;;;;;;5133322;28;19923;-66
2021/08/22 00:10:15;;;;;;;;;;;;;;;;;;5133784;28;19923;-66
2021/08/22 00:12:41;;;;;;;;;;;;;;;;;;5133459;28;19924;-66
2021/08/22 00:15:07;;;;;;;;;;;;;;;;;;5133354;28;19927;-67
2021/08/22 00:17:34;;;;;;;;;;;;;;;;;;5133663;28;19923;-66
2021/08/22 00:20:00;;;;;;;;;;;;;;;;;;5133108;28;19938;-66
2021/08/22 00:22:26;;;;;;;;;;;;;;;;;;5133370;28;19946;-67
2021/08/22 00:24:52;;;;;;;;;;;;;;;;;;5133400;28;19924;-66
2021/08/22 00:27:19;;;;;;;;;;;;;;;;;;5133526;28;19924;-66
2021/08/22 00:29:45;;;;;;;;;;;;;;;;;;5132945;28;19923;-66
2021/08/22 00:32:11;;;;;;;;;;;;;;;;;;5133534;28;19931;-66
2021/08/22 00:34:38;;;;;;;;;;;;;;;;;;5132993;28;19927;-66
2021/08/22 00:37:04;;;;;;;;;;;;;;;;;;5133322;28;19923;-67
2021/08/22 00:39:30;;;;;;;;;;;;;;;;;;5132950;28;19930;-67
2021/08/22 00:41:56;;;;;;;;;;;;;;;;;;5133428;28;19930;-67
2021/08/22 00:44:23;;;;;;;;;;;;;;;;;;5133193;28;19930;-66
2021/08/22 00:46:49;;;;;;;;;;;;;;;;;;5133298;28;19923;-66
2021/08/22 00:49:15;;;;;;;;;;;;;;;;;;5133120;28;19930;-67
2021/08/22 00:51:42;;;;;;;;;;;;;;;;;;5132945;28;19923;-67
2021/08/22 00:54:08;;;;;;;;;;;;;;;;;;5133026;28;19928;-67
2021/08/22 00:56:35;;;;;;;;;;;;;;;;;;5133095;28;19927;-67
2021/08/22 00:59:01;;;;;;;;;;;;;;;;;;5133025;28;19927;-66
2021/08/22 01:01:27;;;;;;;;;;;;;;;;;;5132969;28;19930;-67
2021/08/22 01:03:53;;;;;;;;;;;;;;;;;;5133008;28;20289;-67
2021/08/22 01:06:20;;;;;;;;;;;;;;;;;;5135138;27;19924;-67
2021/08/22 01:08:46;;;;;;;;;;;;;;;;;;5136463;27;20374;-67
2021/08/22 01:11:12;;;;;;;;;;;;;;;;;;5136796;27;19923;-67
2021/08/22 01:13:39;;;;;;;;;;;;;;;;;;5136372;27;19923;-66
2021/08/22 01:16:05;;;;;;;;;;;;;;;;;;5136758;27;19931;-67
2021/08/22 01:18:31;;;;;;;;;;;;;;;;;;5136276;27;20411;-67
2021/08/22 01:20:57;;;;;;;;;;;;;;;;;;5136339;27;19927;-67
2021/08/22 01:23:24;;;;;;;;;;;;;;;;;;5136149;27;20378;-66
2021/08/22 01:25:50;;;;;;;;;;;;;;;;;;5136608;27;20300;-67
2021/08/22 01:28:16;;;;;;;;;;;;;;;;;;5136807;27;19930;-67
2021/08/22 01:30:43;;;;;;;;;;;;;;;;;;5136158;27;19924;-67
2021/08/22 01:33:09;;;;;;;;;;;;;;;;;;5136180;27;19943;-66
2021/08/22 01:35:35;;;;;;;;;;;;;;;;;;5136088;27;19923;-66
2021/08/22 01:38:01;;;;;;;;;;;;;;;;;;5136047;27;19924;-66
2021/08/22 01:40:28;;;;;;;;;;;;;;;;;;5136156;27;19950;-67
2021/08/22 01:42:54;;;;;;;;;;;;;;;;;;5136049;27;19924;-66
2021/08/22 01:45:20;;;;;;;;;;;;;;;;;;5136353;27;19923;-66
2021/08/22 01:47:47;;;;;;;;;;;;;;;;;;5135966;27;19923;-67
2021/08/22 01:50:13;;;;;;;;;;;;;;;;;;5136348;27;19923;-67
2021/08/22 01:52:39;;;;;;;;;;;;;;;;;;5136157;27;19923;-67
2021/08/22 01:55:06;;;;;;;;;;;;;;;;;;5135806;27;20370;-66
2021/08/22 01:57:32;;;;;;;;;;;;;;;;;;5135866;27;19924;-66
2021/08/22 01:59:58;;;;;;;;;;;;;;;;;;5135824;27;19927;-67
2021/08/22 02:02:24;;;;;;;;;;;;;;;;;;5135302;27;20010;-66
2021/08/22 02:04:51;;;;;;;;;;;;;;;;;;5135957;27;19950;-66
2021/08/22 02:07:18;;;;;;;;;;;;;;;;;;5135723;27;20310;-66
2021/08/22 02:09:44;;;;;;;;;;;;;;;;;;5135555;27;19939;-67
2021/08/22 02:12:11;;;;;;;;;;;;;;;;;;5135489;27;20392;-67
2021/08/22 02:14:37;;;;;;;;;;;;;;;;;;5135346;27;19930;-66
2021/08/22 02:17:03;;;;;;;;;;;;;;;;;;5134947;27;19923;-67
2021/08/22 02:19:30;;;;;;;;;;;;;;;;;;5134964;27;19931;-66
2021/08/22 02:21:56;;;;;;;;;;;;;;;;;;5135180;27;19924;-66
2021/08/22 02:24:22;;;;;;;;;;;;;;;;;;5135154;27;19923;-66
2021/08/22 02:26:48;;;;;;;;;;;;;;;;;;5135566;27;19934;-67
2021/08/22 02:29:15;;;;;;;;;;;;;;;;;;5135206;27;19938;-67
2021/08/22 02:31:41;;;;;;;;;;;;;;;;;;5135087;27;19946;-67
2021/08/22 02:34:07;;;;;;;;;;;;;;;;;;5135008;27;19923;-67
2021/08/22 02:36:33;;;;;;;;;;;;;;;;;;5135085;27;19923;-67
2021/08/22 02:39:00;;;;;;;;;;;;;;;;;;5135652;27;19923;-67
2021/08/22 02:41:26;;;;;;;;;;;;;;;;;;5134475;27;20289;-67
2021/08/22 02:43:53;;;;;;;;;;;;;;;;;;5135238;27;19930;-66
2021/08/22 02:46:19;;;;;;;;;;;;;;;;;;5134980;27;19927;-67
2021/08/22 02:48:45;;;;;;;;;;;;;;;;;;5134499;27;20382;-66
2021/08/22 02:51:11;;;;;;;;;;;;;;;;;;5134903;27;19923;-66
2021/08/22 02:53:38;;;;;;;;;;;;;;;;;;5134242;27;20324;-66
2021/08/22 02:56:04;;;;;;;;;;;;;;;;;;5134600;27;19930;-67
2021/08/22 02:58:31;;;;;;;;;;;;;;;;;;5134742;27;19924;-66
2021/08/22 03:00:57;;;;;;;;;;;;;;;;;;5134715;27;19927;-66
2021/08/22 03:03:23;;;;;;;;;;;;;;;;;;5134340;27;19923;-66
2021/08/22 03:05:50;;;;;;;;;;;;;;;;;;5134631;27;19946;-66
2021/08/22 03:08:16;;;;;;;;;;;;;;;;;;5134449;27;19924;-66
2021/08/22 03:10:42;;;;;;;;;;;;;;;;;;5134319;27;19930;-67
2021/08/22 03:13:08;;;;;;;;;;;;;;;;;;5134353;27;19930;-67
2021/08/22 03:15:35;;;;;;;;;;;;;;;;;;5134264;27;19923;-67
2021/08/22 03:18:01;;;;;;;;;;;;;;;;;;5134152;27;19924;-66
2021/08/22 03:20:27;;;;;;;;;;;;;;;;;;5133697;27;20388;-66
2021/08/22 03:22:54;;;;;;;;;;;;;;;;;;5134510;27;19924;-66
2021/08/22 03:25:20;;;;;;;;;;;;;;;;;;5133954;27;20412;-66
2021/08/22 03:27:46;;;;;;;;;;;;;;;;;;5134120;27;19932;-66
2021/08/22 03:30:12;;;;;;;;;;;;;;;;;;5133780;27;19931;-66
2021/08/22 03:32:39;;;;;;;;;;;;;;;;;;5134044;27;20083;-66
2021/08/22 03:35:05;;;;;;;;;;;;;;;;;;5133732;27;20389;-66
2021/08/22 03:37:31;;;;;;;;;;;;;;;;;;5133973;27;19930;-66
2021/08/22 03:39:58;;;;;;;;;;;;;;;;;;5133799;27;20408;-66
2021/08/22 03:42:24;;;;;;;;;;;;;;;;;;5133942;27;19931;-68
2021/08/22 03:44:50;;;;;;;;;;;;;;;;;;5133662;27;19923;-67
2021/08/22 03:47:16;;;;;;;;;;;;;;;;;;5134088;27;19924;-67
2021/08/22 03:49:43;;;;;;;;;;;;;;;;;;5133411;27;19932;-66
2021/08/22 03:52:09;;;;;;;;;;;;;;;;;;5133974;27;19928;-67
2021/08/22 03:54:35;;;;;;;;;;;;;;;;;;5133367;27;19923;-66
2021/08/22 03:57:01;;;;;;;;;;;;;;;;;;5134045;27;19930;-66
2021/08/22 03:59:28;;;;;;;;;;;;;;;;;;5133388;27;19930;-67
2021/08/22 04:01:54;;;;;;;;;;;;;;;;;;5133767;27;19924;-66
2021/08/22 04:04:20;;;;;;;;;;;;;;;;;;5133828;27;19931;-65
2021/08/22 04:06:50;;;;;;;;;;;;;;;;;;5133340;27;20304;-65
2021/08/22 04:09:17;;;;;;;;;;;;;;;;;;5133897;28;19964;-66
2021/08/22 04:11:44;;;;;;;;;;;;;;;;;;5133242;28;19931;-66
2021/08/22 04:14:10;;;;;;;;;;;;;;;;;;5133454;28;20022;-66
2021/08/22 04:16:36;;;;;;;;;;;;;;;;;;5133420;28;19930;-66
2021/08/22 04:19:02;;;;;;;;;;;;;;;;;;5133394;28;19954;-66
2021/08/22 04:21:29;;;;;;;;;;;;;;;;;;5133017;28;19934;-66
2021/08/22 04:23:55;;;;;;;;;;;;;;;;;;5133254;28;19930;-66
2021/08/22 04:26:21;;;;;;;;;;;;;;;;;;5133574;28;19931;-66
2021/08/22 04:28:48;;;;;;;;;;;;;;;;;;5133068;28;20389;-66
2021/08/22 04:31:14;;;;;;;;;;;;;;;;;;5133823;28;19923;-66
2021/08/22 04:33:40;;;;;;;;;;;;;;;;;;5132945;28;20389;-66
2021/08/22 04:36:06;;;;;;;;;;;;;;;;;;5133532;28;19930;-66
2021/08/22 04:38:33;;;;;;;;;;;;;;;;;;5133251;28;19923;-66
2021/08/22 04:40:59;;;;;;;;;;;;;;;;;;5134659;27;19924;-66
2021/08/22 04:43:25;;;;;;;;;;;;;;;;;;5137260;27;19923;-66
2021/08/22 04:45:52;;;;;;;;;;;;;;;;;;5137088;27;19930;-66
2021/08/22 04:48:18;;;;;;;;;;;;;;;;;;5137739;27;19924;-66
2021/08/22 04:50:44;;;;;;;;;;;;;;;;;;5136843;27;19923;-66
2021/08/22 04:53:10;;;;;;;;;;;;;;;;;;5137338;27;20304;-66
2021/08/22 04:55:37;;;;;;;;;;;;;;;;;;5137010;27;19930;-66
2021/08/22 04:58:03;;;;;;;;;;;;;;;;;;5137262;27;19930;-66
2021/08/22 05:00:29;;;;;;;;;;;;;;;;;;5136768;27;19935;-66
2021/08/22 05:02:55;;;;;;;;;;;;;;;;;;5137132;27;19924;-67
2021/08/22 05:05:22;;;;;;;;;;;;;;;;;;5136829;27;19930;-66
2021/08/22 05:07:48;;;;;;;;;;;;;;;;;;5136527;27;20378;-66
2021/08/22 05:10:16;;;;;;;;;;;;;;;;;;5137039;27;19927;-66
2021/08/22 05:12:42;;;;;;;;;;;;;;;;;;5136069;27;19923;-67
2021/08/22 05:15:08;;;;;;;;;;;;;;;;;;5136931;27;19932;-66
2021/08/22 05:17:35;;;;;;;;;;;;;;;;;;5136314;27;19934;-66
2021/08/22 05:20:01;;;;;;;;;;;;;;;;;;5136600;27;19923;-66
2021/08/22 05:22:27;;;;;;;;;;;;;;;;;;5136145;27;19930;-66
2021/08/22 05:24:53;;;;;;;;;;;;;;;;;;5136663;27;19924;-66
2021/08/22 05:27:20;;;;;;;;;;;;;;;;;;5136395;27;19923;-66
2021/08/22 05:29:46;;;;;;;;;;;;;;;;;;5136405;27;19927;-66
2021/08/22 05:32:12;;;;;;;;;;;;;;;;;;5136203;27;19923;-66
2021/08/22 05:34:39;;;;;;;;;;;;;;;;;;5136485;27;19923;-66
2021/08/22 05:37:05;;;;;;;;;;;;;;;;;;5136008;27;19931;-66
2021/08/22 05:39:31;;;;;;;;;;;;;;;;;;5136328;27;19942;-66
2021/08/22 05:41:57;;;;;;;;;;;;;;;;;;5136046;27;19930;-66
2021/08/22 05:44:24;;;;;;;;;;;;;;;;;;5136330;27;19924;-66
2021/08/22 05:46:50;;;;;;;;;;;;;;;;;;5135841;27;20316;-66
2021/08/22 05:49:16;;;;;;;;;;;;;;;;;;5136235;27;19930;-66
2021/08/22 05:51:44;;;;;;;;;;;;;;;;;;5135434;27;19931;-66
2021/08/22 05:54:10;;;;;;;;;;;;;;;;;;5135878;27;20377;-66
2021/08/22 05:56:37;;;;;;;;;;;;;;;;;;5135775;27;19923;-66
2021/08/22 05:59:03;;;;;;;;;;;;;;;;;;5135735;27;19924;-66
2021/08/22 06:01:29;;;;;;;;;;;;;;;;;;5135775;27;19927;-66
2021/08/22 06:03:56;;;;;;;;;;;;;;;;;;5135599;27;19924;-66
2021/08/22 06:06:22;;;;;;;;;;;;;;;;;;5136143;27;19927;-66
2021/08/22 06:08:48;;;;;;;;;;;;;;;;;;5135366;27;19930;-66
2021/08/22 06:11:14;;;;;;;;;;;;;;;;;;5135774;27;19931;-66
2021/08/22 06:13:41;;;;;;;;;;;;;;;;;;5135235;27;19931;-67
2021/08/22 06:16:07;;;;;;;;;;;;;;;;;;5135763;27;20317;-66
2021/08/22 06:18:33;;;;;;;;;;;;;;;;;;5135272;27;19930;-66
2021/08/22 06:20:59;;;;;;;;;;;;;;;;;;5135158;27;19959;-66
2021/08/22 06:23:26;;;;;;;;;;;;;;;;;;5135628;27;19930;-66
2021/08/22 06:25:52;;;;;;;;;;;;;;;;;;5135146;27;19928;-66
2021/08/22 06:28:18;;;;;;;;;;;;;;;;;;5135559;27;19923;-66
2021/08/22 06:30:45;;;;;;;;;;;;;;;;;;5134824;27;19924;-66
2021/08/22 06:33:11;;;;;;;;;;;;;;;;;;5135403;27;19923;-66
2021/08/22 06:35:37;;;;;;;;;;;;;;;;;;5134792;27;19923;-66
2021/08/22 06:38:03;;;;;;;;;;;;;;;;;;5135321;27;19923;-66
2021/08/22 06:40:30;;;;;;;;;;;;;;;;;;5134713;27;19934;-67
2021/08/22 06:42:56;;;;;;;;;;;;;;;;;;5135308;27;19924;-66
2021/08/22 06:45:22;;;;;;;;;;;;;;;;;;5134946;27;19927;-67
2021/08/22 06:47:49;;;;;;;;;;;;;;;;;;5135013;27;19945;-66
2021/08/22 06:50:15;;;;;;;;;;;;;;;;;;5135152;27;19930;-66
2021/08/22 06:52:41;;;;;;;;;;;;;;;;;;5134328;27;20289;-66
2021/08/22 06:55:07;;;;;;;;;;;;;;;;;;5134877;27;19923;-66
2021/08/22 06:57:34;;;;;;;;;;;;;;;;;;5134388;27;19924;-66
2021/08/22 07:00:00;;;;;;;;;;;;;;;;;;5134893;27;19924;-66
2021/08/22 07:02:26;;;;;;;;;;;;;;;;;;5134700;27;19972;-67
2021/08/22 07:04:53;;;;;;;;;;;;;;;;;;5133944;27;20297;-66
2021/08/22 07:07:19;;;;;;;;;;;;;;;;;;5134760;27;19924;-66
2021/08/22 07:09:45;;;;;;;;;;;;;;;;;;5134136;27;20304;-66
2021/08/22 07:12:14;;;;;;;;;;;;;;;;;;5134515;27;19923;-66
2021/08/22 07:14:40;;;;;;;;;;;;;;;;;;5134533;27;19923;-66
2021/08/22 07:17:06;;;;;;;;;;;;;;;;;;5134150;27;20400;-67
2021/08/22 07:19:33;;;;;;;;;;;;;;;;;;5134120;27;19924;-66
2021/08/22 07:21:59;;;;;;;;;;;;;;;;;;5134231;27;19924;-66
2021/08/22 07:24:25;;;;;;;;;;;;;;;;;;5134377;27;19924;-66
2021/08/22 07:26:52;;;;;;;;;;;;;;;;;;5134005;27;20377;-67
2021/08/22 07:29:18;;;;;;;;;;;;;;;;;;5134233;27;19923;-66
2021/08/22 07:31:44;;;;;;;;;;;;;;;;;;5133634;27;20289;-66
2021/08/22 07:34:10;;;;;;;;;;;;;;;;;;5134321;27;19924;-67
2021/08/22 07:36:37;;;;;;;;;;;;;;;;;;5133594;27;20400;-66
2021/08/22 07:39:03;;;;;;;;;;;;;;;;;;5134144;27;19935;-67
2021/08/22 07:41:29;;;;;;;;;;;;;;;;;;5133482;27;20393;-67
2021/08/22 07:43:56;;;;;;;;;;;;;;;;;;5134034;27;19931;-66
2021/08/22 07:46:22;;;;;;;;;;;;;;;;;;5133732;27;20374;-66
2021/08/22 07:48:48;;;;;;;;;;;;;;;;;;5133734;27;19930;-66
2021/08/22 07:51:14;;;;;;;;;;;;;;;;;;5133542;27;20377;-66
2021/08/22 07:53:41;;;;;;;;;;;;;;;;;;5133712;27;19924;-67
2021/08/22 07:56:07;;;;;;;;;;;;;;;;;;5133512;27;20590;-66
2021/08/22 07:58:33;;;;;;;;;;;;;;;;;;5133639;27;19928;-66
2021/08/22 08:00:59;;;;;;;;;;;;;;;;;;5133465;27;19923;-66
2021/08/22 08:03:26;;;;;;;;;;;;;;;;;;5133769;27;19923;-66
2021/08/22 08:05:54;;;;;;;;;;;;;;;;;;5133556;27;19930;-66
2021/08/22 08:08:20;;;;;;;;;;;;;;;;;;5133565;28;19930;-66
2021/08/22 08:10:46;;;;;;;;;;;;;;;;;;5133527;28;19924;-66
2021/08/22 08:13:12;;;;;;;;;;;;;;;;;;5133384;28;20392;-66
2021/08/22 08:15:39;;;;;;;;;;;;;;;;;;5134548;27;19923;-66
2021/08/22 08:18:05;;;;;;;;;;;;;;;;;;5137553;27;20525;-66
2021/08/22 08:20:31;;;;;;;;;;;;;;;;;;5137595;27;19923;-67
2021/08/22 08:22:58;;;;;;;;;;;;;;;;;;5137556;27;20373;-67
2021/08/22 08:25:24;;;;;;;;;;;;;;;;;;5137951;27;19927;-66
2021/08/22 08:27:50;;;;;;;;;;;;;;;;;;5137516;27;19924;-69
2021/08/22 08:30:17;;;;;;;;;;;;;;;;;;5137770;27;19923;-69
2021/08/22 08:32:43;;;;;;;;;;;;;;;;;;5137008;27;19938;-69
2021/08/22 08:35:10;;;;;;;;;;;;;;;;;;5137538;27;19923;-68
2021/08/22 08:37:37;;;;;;;;;;;;;;;;;;5137113;27;19931;-68
2021/08/22 08:40:03;;;;;;;;;;;;;;;;;;5137694;27;19924;-68
2021/08/22 08:42:29;;;;;;;;;;;;;;;;;;5136939;27;19934;-67
2021/08/22 08:44:56;;;;;;;;;;;;;;;;;;5137498;27;19923;-67
2021/08/22 08:47:22;;;;;;;;;;;;;;;;;;5137177;27;19924;-67
2021/08/22 08:49:48;;;;;;;;;;;;;;;;;;5137194;27;19928;-67
2021/08/22 08:52:14;;;;;;;;;;;;;;;;;;5136976;27;19927;-68
2021/08/22 08:54:41;;;;;;;;;;;;;;;;;;5137023;27;19928;-67
2021/08/22 08:57:07;;;;;;;;;;;;;;;;;;5136915;27;19923;-68
2021/08/22 08:59:33;;;;;;;;;;;;;;;;;;5136980;27;19939;-67
2021/08/22 09:02:00;;;;;;;;;;;;;;;;;;5137172;27;19969;-67
2021/08/22 09:04:26;;;;;;;;;;;;;;;;;;5136803;27;19924;-67
2021/08/22 09:06:52;;;;;;;;;;;;;;;;;;5136736;27;19923;-67
2021/08/22 09:09:19;;;;;;;;;;;;;;;;;;5136740;27;19923;-67
2021/08/22 09:11:45;;;;;;;;;;;;;;;;;;5136685;27;19927;-68
2021/08/22 09:14:11;;;;;;;;;;;;;;;;;;5136636;27;19924;-68
2021/08/22 09:16:38;;;;;;;;;;;;;;;;;;5136550;27;19946;-67
2021/08/22 09:19:04;;;;;;;;;;;;;;;;;;5136491;27;19923;-67
2021/08/22 09:21:30;;;;;;;;;;;;;;;;;;5136166;27;19927;-68
2021/08/22 09:23:56;;;;;;;;;;;;;;;;;;5136475;27;19923;-68
2021/08/22 09:26:23;;;;;;;;;;;;;;;;;;5136230;27;19924;-67
2021/08/22 09:28:49;;;;;;;;;;;;;;;;;;5135879;27;19923;-67
2021/08/22 09:31:15;;;;;;;;;;;;;;;;;;5136606;27;19935;-67
2021/08/22 09:33:42;;;;;;;;;;;;;;;;;;5135827;27;20389;-67
2021/08/22 09:36:08;;;;;;;;;;;;;;;;;;5136500;27;19923;-67
2021/08/22 09:38:34;;;;;;;;;;;;;;;;;;5135919;27;20385;-67
2021/08/22 09:41:00;;;;;;;;;;;;;;;;;;5136380;27;19924;-67
2021/08/22 09:43:27;;;;;;;;;;;;;;;;;;5136112;27;19923;-67
2021/08/22 09:45:53;;;;;;;;;;;;;;;;;;5136044;27;19962;-68
2021/08/22 09:48:19;;;;;;;;;;;;;;;;;;5136223;27;19930;-67
2021/08/22 09:50:46;;;;;;;;;;;;;;;;;;5135689;27;20384;-67
2021/08/22 09:53:12;;;;;;;;;;;;;;;;;;5135987;27;19923;-67
2021/08/22 09:55:38;;;;;;;;;;;;;;;;;;5135512;27;19923;-67
2021/08/22 09:58:04;;;;;;;;;;;;;;;;;;5135953;27;19930;-67
2021/08/22 10:00:31;;;;;;;;;;;;;;;;;;5135530;27;19938;-67
2021/08/22 10:02:57;;;;;;;;;;;;;;;;;;5135933;27;19946;-67
2021/08/22 10:05:23;;;;;;;;;;;;;;;;;;5135706;27;19930;-66
2021/08/22 10:07:49;;;;;;;;;;;;;;;;;;5135685;27;19930;-67
2021/08/22 10:10:16;;;;;;;;;;;;;;;;;;5135641;27;19928;-67
2021/08/22 10:12:42;;;;;;;;;;;;;;;;;;5135518;27;19923;-66
2021/08/22 10:15:09;;;;;;;;;;;;;;;;;;5135408;27;20681;-67
2021/08/22 10:17:35;;;;;;;;;;;;;;;;;;5135454;27;19924;-67
2021/08/22 10:20:01;;;;;;;;;;;;;;;;;;5135264;27;20382;-67
2021/08/22 10:22:28;;;;;;;;;;;;;;;;;;5135527;27;19924;-67
2021/08/22 10:24:56;;;;;;;;;;;;;;;;;;5135523;27;19928;-67
2021/08/22 10:27:22;;;;;;;;;;;;;;;;;;5135194;27;20022;-67
2021/08/22 10:29:48;;;;;;;;;;;;;;;;;;5135255;27;19950;-67
2021/08/22 10:32:15;;;;;;;;;;;;;;;;;;5134943;27;19923;-66
2021/08/22 10:34:41;;;;;;;;;;;;;;;;;;5134961;27;19969;-67
2021/08/22 10:37:07;;;;;;;;;;;;;;;;;;5135054;27;19930;-67
2021/08/22 10:39:33;;;;;;;;;;;;;;;;;;5134201;27;19924;-67
2021/08/22 10:42:00;;;;;;;;;;;;;;;;;;5134918;27;19923;-71
2021/08/22 10:44:26;;;;;;;;;;;;;;;;;;5135095;27;19927;-67
2021/08/22 10:46:52;;;;;;;;;;;;;;;;;;5134573;27;19930;-67
2021/08/22 10:49:19;;;;;;;;;;;;;;;;;;5135084;27;19924;-68
2021/08/22 10:51:45;;;;;;;;;;;;;;;;;;5134442;27;19937;-67
2021/08/22 10:54:11;;;;;;;;;;;;;;;;;;5134838;27;19930;-67
2021/08/22 10:56:40;;;;;;;;;;;;;;;;;;5134321;27;19924;-71
2021/08/22 10:59:08;;;;;;;;;;;;;;;;;;5134962;27;19927;-73
2021/08/22 11:01:34;;;;;;;;;;;;;;;;;;5134340;27;19930;-69
2021/08/22 11:04:01;;;;;;;;;;;;;;;;;;5134464;27;19976;-69
2021/08/22 11:06:27;;;;;;;;;;;;;;;;;;5134725;27;19982;-69
2021/08/22 11:08:53;;;;;;;;;;;;;;;;;;5134263;27;20464;-70
2021/08/22 11:11:20;;;;;;;;;;;;;;;;;;5134082;27;19930;-69
2021/08/22 11:13:46;;;;;;;;;;;;;;;;;;5133142;27;20565;-69
2021/08/22 11:16:12;;;;;;;;;;;;;;;;;;5134140;27;19952;-70
2021/08/22 11:18:38;;;;;;;;;;;;;;;;;;5133982;27;19923;-70
2021/08/22 11:21:05;;;;;;;;;;;;;;;;;;5134067;27;19923;-70
2021/08/22 11:23:31;;;;;;;;;;;;;;;;;;5133845;27;19924;-69
2021/08/22 11:25:57;;;;;;;;;;;;;;;;;;5134316;27;19969;-71
2021/08/22 11:28:24;;;;;;;;;;;;;;;;;;5134336;27;19924;-70
2021/08/22 11:30:52;;;;;;;;;;;;;;;;;;5133027;27;21434;-68
2021/08/22 11:33:18;;;;;;;;;;;;;;;;;;5134137;27;19930;-67
2021/08/22 11:35:45;;;;;;;;;;;;;;;;;;5133563;27;20385;-72
2021/08/22 11:38:11;;;;;;;;;;;;;;;;;;5134245;27;19923;-69
2021/08/22 11:40:37;;;;;;;;;;;;;;;;;;5133598;27;19924;-69
2021/08/22 11:43:03;;;;;;;;;;;;;;;;;;5134161;27;19938;-70
2021/08/22 11:45:30;;;;;;;;;;;;;;;;;;5133558;27;19934;-70
2021/08/22 11:47:56;;;;;;;;;;;;;;;;;;5133905;27;19923;-70
2021/08/22 11:50:23;;;;;;;;;;;;;;;;;;5133593;27;19924;-70
2021/08/22 11:52:49;;;;;;;;;;;;;;;;;;5133255;27;20380;-70
2021/08/22 11:55:16;;;;;;;;;;;;;;;;;;5133940;27;19923;-70
2021/08/22 11:57:42;;;;;;;;;;;;;;;;;;5133397;27;20271;-70
2021/08/22 12:00:08;;;;;;;;;;;;;;;;;;5134009;27;19923;-70
2021/08/22 12:02:35;;;;;;;;;;;;;;;;;;5133278;27;19924;-67
2021/08/22 12:05:01;;;;;;;;;;;;;;;;;;5133490;27;19924;-69
2021/08/22 12:07:28;;;;;;;;;;;;;;;;;;5133706;27;19931;-68
2021/08/22 12:09:54;;;;;;;;;;;;;;;;;;5133506;27;19924;-68
2021/08/22 12:12:20;;;;;;;;;;;;;;;;;;5133973;27;19924;-68
2021/08/22 12:14:46;;;;;;;;;;;;;;;;;;5133194;28;19923;-68
2021/08/22 12:17:13;;;;;;;;;;;;;;;;;;5133681;28;19930;-68
2021/08/22 12:19:39;;;;;;;;;;;;;;;;;;5133302;28;19924;-67
2021/08/22 12:22:05;;;;;;;;;;;;;;;;;;5133621;28;19930;-69
2021/08/22 12:24:32;;;;;;;;;;;;;;;;;;5133027;28;19960;-68
2021/08/22 12:26:58;;;;;;;;;;;;;;;;;;5133683;28;19923;-69
2021/08/22 12:29:24;;;;;;;;;;;;;;;;;;5133305;28;19923;-68
2021/08/22 12:31:52;;;;;;;;;;;;;;;;;;5133558;28;19947;-68
2021/08/22 12:34:19;;;;;;;;;;;;;;;;;;5133153;28;19927;-68
2021/08/22 12:36:45;;;;;;;;;;;;;;;;;;5133064;28;20021;-69
2021/08/22 12:39:11;;;;;;;;;;;;;;;;;;5133473;28;19931;-69
2021/08/22 12:41:38;;;;;;;;;;;;;;;;;;5131408;28;20397;-69
2021/08/22 12:44:04;;;;;;;;;;;;;;;;;;5132597;28;19923;-69
2021/08/22 12:46:30;;;;;;;;;;;;;;;;;;5132358;28;19932;-70
2021/08/22 12:48:56;;;;;;;;;;;;;;;;;;5133263;28;19923;-71
2021/08/22 12:51:23;;;;;;;;;;;;;;;;;;5131745;28;19923;-71
2021/08/22 12:53:49;;;;;;;;;;;;;;;;;;5133281;28;19927;-71
2021/08/22 12:56:15;;;;;;;;;;;;;;;;;;5132902;28;19924;-71
2021/08/22 12:58:42;;;;;;;;;;;;;;;;;;5133046;28;19947;-71
2021/08/22 13:01:08;;;;;;;;;;;;;;;;;;5132902;27;19930;-71
2021/08/22 13:03:34;;;;;;;;;;;;;;;;;;5137143;27;19931;-71
2021/08/22 13:06:00;;;;;;;;;;;;;;;;;;5136578;27;19923;-71
2021/08/22 13:08:27;;;;;;;;;;;;;;;;;;5137171;27;19927;-71
2021/08/22 13:10:53;;;;;;;;;;;;;;;;;;5136418;27;19931;-71
2021/08/22 13:13:19;;;;;;;;;;;;;;;;;;5136793;27;19923;-71
2021/08/22 13:15:46;;;;;;;;;;;;;;;;;;5136510;27;19939;-71
2021/08/22 13:18:12;;;;;;;;;;;;;;;;;;5136975;27;19931;-71
2021/08/22 13:20:38;;;;;;;;;;;;;;;;;;5135942;27;19927;-71
2021/08/22 13:23:04;;;;;;;;;;;;;;;;;;5136793;27;19923;-71
2021/08/22 13:25:31;;;;;;;;;;;;;;;;;;5136508;27;19931;-71
2021/08/22 13:27:58;;;;;;;;;;;;;;;;;;5136361;27;19927;-71
2021/08/22 13:30:24;;;;;;;;;;;;;;;;;;5136617;27;20287;-71
2021/08/22 13:32:50;;;;;;;;;;;;;;;;;;5136361;27;19924;-71
2021/08/22 13:35:16;;;;;;;;;;;;;;;;;;5136182;27;20270;-71
2021/08/22 13:37:43;;;;;;;;;;;;;;;;;;5136189;27;19931;-71
2021/08/22 13:40:09;;;;;;;;;;;;;;;;;;5136465;27;20396;-71
2021/08/22 13:42:36;;;;;;;;;;;;;;;;;;5136080;27;20385;-71
2021/08/22 13:45:02;;;;;;;;;;;;;;;;;;5136288;27;19923;-71
2021/08/22 13:47:28;;;;;;;;;;;;;;;;;;5135958;27;20270;-72
2021/08/22 13:49:54;;;;;;;;;;;;;;;;;;5135989;27;19923;-71
2021/08/22 13:52:21;;;;;;;;;;;;;;;;;;5135897;27;20285;-71
2021/08/22 13:54:47;;;;;;;;;;;;;;;;;;5135547;27;19930;-71
2021/08/22 13:57:13;;;;;;;;;;;;;;;;;;5135873;27;20377;-71
2021/08/22 13:59:40;;;;;;;;;;;;;;;;;;5135741;27;19938;-71
2021/08/22 14:02:06;;;;;;;;;;;;;;;;;;5135688;27;20309;-72
2021/08/22 14:04:32;;;;;;;;;;;;;;;;;;5136040;27;19924;-71
2021/08/22 14:06:59;;;;;;;;;;;;;;;;;;5135934;27;20284;-71
2021/08/22 14:09:25;;;;;;;;;;;;;;;;;;5136014;27;19931;-71
2021/08/22 14:11:51;;;;;;;;;;;;;;;;;;5135550;27;20258;-71
2021/08/22 14:14:17;;;;;;;;;;;;;;;;;;5134137;27;19923;-71
2021/08/22 14:16:44;;;;;;;;;;;;;;;;;;5135431;27;20285;-71
2021/08/22 14:19:10;;;;;;;;;;;;;;;;;;5135432;27;19931;-71
2021/08/22 14:21:36;;;;;;;;;;;;;;;;;;5135267;27;19923;-71
2021/08/22 14:24:03;;;;;;;;;;;;;;;;;;5135256;27;19924;-71
2021/08/22 14:26:29;;;;;;;;;;;;;;;;;;5135472;27;19935;-71
2021/08/22 14:28:55;;;;;;;;;;;;;;;;;;5135266;27;20397;-71
2021/08/22 14:31:21;;;;;;;;;;;;;;;;;;5135406;27;19931;-71
2021/08/22 14:33:48;;;;;;;;;;;;;;;;;;5135161;27;20025;-71
2021/08/22 14:36:14;;;;;;;;;;;;;;;;;;5135112;27;19923;-71
2021/08/22 14:38:40;;;;;;;;;;;;;;;;;;5135219;27;19924;-71
2021/08/22 14:41:07;;;;;;;;;;;;;;;;;;5134879;27;19930;-71
2021/08/22 14:43:33;;;;;;;;;;;;;;;;;;5134798;27;19924;-71
2021/08/22 14:45:59;;;;;;;;;;;;;;;;;;5134956;27;19927;-71
2021/08/22 14:48:25;;;;;;;;;;;;;;;;;;5135030;27;19924;-70
2021/08/22 14:50:52;;;;;;;;;;;;;;;;;;5134534;27;19923;-72
2021/08/22 14:53:18;;;;;;;;;;;;;;;;;;5134861;27;19923;-71
2021/08/22 14:55:44;;;;;;;;;;;;;;;;;;5134490;27;19923;-71
2021/08/22 14:58:12;;;;;;;;;;;;;;;;;;5134866;27;19931;-71
2021/08/22 15:00:38;;;;;;;;;;;;;;;;;;5134760;27;19945;-70
2021/08/22 15:03:06;;;;;;;;;;;;;;;;;;5134568;27;19930;-70
2021/08/22 15:05:32;;;;;;;;;;;;;;;;;;5134517;27;19923;-70
2021/08/22 15:07:58;;;;;;;;;;;;;;;;;;5134516;27;19923;-71
2021/08/22 15:10:25;;;;;;;;;;;;;;;;;;5134661;27;19930;-71
2021/08/22 15:12:51;;;;;;;;;;;;;;;;;;5134154;27;19924;-70
2021/08/22 15:15:17;;;;;;;;;;;;;;;;;;5134569;27;19924;-70
2021/08/22 15:17:43;;;;;;;;;;;;;;;;;;5134044;27;19930;-71
2021/08/22 15:20:10;;;;;;;;;;;;;;;;;;5134236;27;19923;-70
2021/08/22 15:22:36;;;;;;;;;;;;;;;;;;5133987;27;19923;-70
2021/08/22 15:25:02;;;;;;;;;;;;;;;;;;5134255;27;19931;-70
2021/08/22 15:27:29;;;;;;;;;;;;;;;;;;5134072;27;19930;-71
2021/08/22 15:29:55;;;;;;;;;;;;;;;;;;5134319;27;19923;-70
2021/08/22 15:32:22;;;;;;;;;;;;;;;;;;5134113;27;19923;-71
2021/08/22 15:34:48;;;;;;;;;;;;;;;;;;5133606;27;20335;-70
2021/08/22 15:37:14;;;;;;;;;;;;;;;;;;5134310;27;19923;-70
2021/08/22 15:39:40;;;;;;;;;;;;;;;;;;5133600;27;19931;-70
2021/08/22 15:42:07;;;;;;;;;;;;;;;;;;5134064;27;19924;-71
2021/08/22 15:44:34;;;;;;;;;;;;;;;;;;5133424;27;19923;-71
2021/08/22 15:47:00;;;;;;;;;;;;;;;;;;5133967;27;19988;-71
2021/08/22 15:49:26;;;;;;;;;;;;;;;;;;5134082;27;19949;-71
2021/08/22 15:51:53;;;;;;;;;;;;;;;;;;5133052;27;20427;-71
2021/08/22 15:54:19;;;;;;;;;;;;;;;;;;5133644;27;19930;-71
2021/08/22 15:56:45;;;;;;;;;;;;;;;;;;5133853;27;19923;-70
2021/08/22 15:59:12;;;;;;;;;;;;;;;;;;5133620;27;20313;-71
2021/08/22 16:01:38;;;;;;;;;;;;;;;;;;5133741;27;19930;-72
2021/08/22 16:04:04;;;;;;;;;;;;;;;;;;5133510;27;20301;-73
2021/08/22 16:06:30;;;;;;;;;;;;;;;;;;5133768;27;19927;-71
2021/08/22 16:08:57;;;;;;;;;;;;;;;;;;5133397;27;20293;-70
2021/08/22 16:11:23;;;;;;;;;;;;;;;;;;5133512;27;19923;-72
2021/08/22 16:13:49;;;;;;;;;;;;;;;;;;5133482;27;19950;-71
2021/08/22 16:16:16;;;;;;;;;;;;;;;;;;5133463;28;19923;-72
2021/08/22 16:18:42;;;;;;;;;;;;;;;;;;5133350;28;19923;-71
2021/08/22 16:21:08;;;;;;;;;;;;;;;;;;5133096;28;19924;-73
2021/08/22 16:23:34;;;;;;;;;;;;;;;;;;5133414;28;19932;-72
2021/08/22 16:26:01;;;;;;;;;;;;;;;;;;5133419;28;19928;-71
2021/08/22 16:28:27;;;;;;;;;;;;;;;;;;5133734;28;19930;-69
2021/08/22 16:30:53;;;;;;;;;;;;;;;;;;5133057;28;19923;-72
2021/08/22 16:33:20;;;;;;;;;;;;;;;;;;5133254;28;19939;-71
2021/08/22 16:35:46;;;;;;;;;;;;;;;;;;5132593;27;19924;-71
2021/08/22 16:38:12;;;;;;;;;;;;;;;;;;5136969;27;19968;-71